sensor_id;sensor_type;location;lat;lon;timestamp;P1;durP1;ratioP1;P2;durP2;ratioP2
12214;SDS011;6170;42.206;24.142;2023-04-21T00:01:05;10.10;;;7.20;;
12214;SDS011;6170;42.206;24.142;2023-04-21T00:03:32;10.82;;;6.95;;
12214;SDS011;6170;42.206;24.142;2023-04-21T00:06:02;9.57;;;7.30;;
12214;SDS011;6170;42.206;24.142;2023-04-21T00:08:31;10.07;;;7.75;;
12214;SDS011;6170;42.206;24.142;2023-04-21T00:11:02;10.32;;;7.82;;
12214;SDS011;6170;42.206;24.142;2023-04-21T00:13:29;10.73;;;7.53;;
12214;SDS011;6170;42.206;24.142;2023-04-21T00:15:56;10.63;;;8.63;;
12214;SDS011;6170;42.206;24.142;2023-04-21T00:18:23;10.60;;;7.80;;
12214;SDS011;6170;42.206;24.142;2023-04-21T00:20:51;10.73;;;8.40;;
12214;SDS011;6170;42.206;24.142;2023-04-21T00:23:19;10.18;;;8.48;;
12214;SDS011;6170;42.206;24.142;2023-04-21T00:25:47;9.95;;;8.00;;
12214;SDS011;6170;42.206;24.142;2023-04-21T00:28:14;12.10;;;9.02;;
12214;SDS011;6170;42.206;24.142;2023-04-21T00:30:41;11.05;;;8.55;;
12214;SDS011;6170;42.206;24.142;2023-04-21T00:33:08;11.40;;;9.10;;
12214;SDS011;6170;42.206;24.142;2023-04-21T00:35:35;11.50;;;9.00;;
12214;SDS011;6170;42.206;24.142;2023-04-21T00:38:02;11.32;;;9.30;;
12214;SDS011;6170;42.206;24.142;2023-04-21T00:40:29;18.23;;;9.73;;
12214;SDS011;6170;42.206;24.142;2023-04-21T00:42:58;13.00;;;9.57;;
12214;SDS011;6170;42.206;24.142;2023-04-21T00:45:25;13.23;;;9.30;;
12214;SDS011;6170;42.206;24.142;2023-04-21T00:47:52;10.95;;;9.07;;
12214;SDS011;6170;42.206;24.142;2023-04-21T00:50:19;10.98;;;9.00;;
12214;SDS011;6170;42.206;24.142;2023-04-21T00:52:46;13.57;;;9.70;;
12214;SDS011;6170;42.206;24.142;2023-04-21T00:55:13;11.90;;;9.43;;
12214;SDS011;6170;42.206;24.142;2023-04-21T00:57:41;12.05;;;9.15;;
12214;SDS011;6170;42.206;24.142;2023-04-21T01:00:11;10.88;;;8.57;;
12214;SDS011;6170;42.206;24.142;2023-04-21T01:02:38;13.88;;;9.07;;
12214;SDS011;6170;42.206;24.142;2023-04-21T01:05:06;12.25;;;9.05;;
12214;SDS011;6170;42.206;24.142;2023-04-21T01:07:34;12.20;;;8.80;;
12214;SDS011;6170;42.206;24.142;2023-04-21T01:10:01;11.82;;;9.00;;
12214;SDS011;6170;42.206;24.142;2023-04-21T01:12:28;11.63;;;8.23;;
12214;SDS011;6170;42.206;24.142;2023-04-21T01:14:55;12.70;;;8.60;;
12214;SDS011;6170;42.206;24.142;2023-04-21T01:17:24;13.88;;;8.40;;
12214;SDS011;6170;42.206;24.142;2023-04-21T01:19:51;11.20;;;8.77;;
12214;SDS011;6170;42.206;24.142;2023-04-21T01:22:23;10.80;;;9.10;;
12214;SDS011;6170;42.206;24.142;2023-04-21T01:24:50;11.85;;;8.60;;
12214;SDS011;6170;42.206;24.142;2023-04-21T01:27:18;11.23;;;9.05;;
12214;SDS011;6170;42.206;24.142;2023-04-21T01:29:46;11.02;;;9.15;;
12214;SDS011;6170;42.206;24.142;2023-04-21T01:32:17;11.88;;;8.60;;
12214;SDS011;6170;42.206;24.142;2023-04-21T01:34:45;13.32;;;8.57;;
12214;SDS011;6170;42.206;24.142;2023-04-21T01:37:14;11.18;;;8.73;;
12214;SDS011;6170;42.206;24.142;2023-04-21T01:39:45;12.88;;;8.18;;
12214;SDS011;6170;42.206;24.142;2023-04-21T01:42:16;12.40;;;8.60;;
12214;SDS011;6170;42.206;24.142;2023-04-21T01:44:43;11.70;;;8.60;;
12214;SDS011;6170;42.206;24.142;2023-04-21T01:47:11;14.30;;;8.35;;
12214;SDS011;6170;42.206;24.142;2023-04-21T01:49:39;11.00;;;8.30;;
12214;SDS011;6170;42.206;24.142;2023-04-21T01:52:06;12.38;;;8.80;;
12214;SDS011;6170;42.206;24.142;2023-04-21T01:54:33;11.75;;;8.48;;
12214;SDS011;6170;42.206;24.142;2023-04-21T01:57:02;10.15;;;8.20;;
12214;SDS011;6170;42.206;24.142;2023-04-21T01:59:29;11.80;;;8.60;;
12214;SDS011;6170;42.206;24.142;2023-04-21T02:01:56;12.85;;;9.10;;
12214;SDS011;6170;42.206;24.142;2023-04-21T02:04:23;15.57;;;8.35;;
12214;SDS011;6170;42.206;24.142;2023-04-21T02:06:50;13.93;;;8.85;;
12214;SDS011;6170;42.206;24.142;2023-04-21T02:09:17;12.40;;;8.50;;
12214;SDS011;6170;42.206;24.142;2023-04-21T02:11:44;14.23;;;8.40;;
12214;SDS011;6170;42.206;24.142;2023-04-21T02:14:13;11.32;;;8.32;;
12214;SDS011;6170;42.206;24.142;2023-04-21T02:16:40;10.52;;;9.00;;
12214;SDS011;6170;42.206;24.142;2023-04-21T02:19:07;11.95;;;9.15;;
12214;SDS011;6170;42.206;24.142;2023-04-21T02:21:34;14.23;;;9.98;;
12214;SDS011;6170;42.206;24.142;2023-04-21T02:24:01;13.65;;;9.70;;
12214;SDS011;6170;42.206;24.142;2023-04-21T02:26:28;11.40;;;9.48;;
12214;SDS011;6170;42.206;24.142;2023-04-21T02:28:55;12.88;;;9.52;;
12214;SDS011;6170;42.206;24.142;2023-04-21T02:31:24;15.85;;;9.63;;
12214;SDS011;6170;42.206;24.142;2023-04-21T02:33:51;10.57;;;9.30;;
12214;SDS011;6170;42.206;24.142;2023-04-21T02:36:18;12.55;;;9.95;;
12214;SDS011;6170;42.206;24.142;2023-04-21T02:38:45;15.55;;;10.07;;
12214;SDS011;6170;42.206;24.142;2023-04-21T02:41:12;11.95;;;9.35;;
12214;SDS011;6170;42.206;24.142;2023-04-21T02:43:39;13.70;;;9.98;;
12214;SDS011;6170;42.206;24.142;2023-04-21T02:46:07;20.73;;;11.05;;
12214;SDS011;6170;42.206;24.142;2023-04-21T02:48:35;13.95;;;10.68;;
12214;SDS011;6170;42.206;24.142;2023-04-21T02:51:02;15.10;;;11.07;;
12214;SDS011;6170;42.206;24.142;2023-04-21T02:53:30;13.40;;;11.50;;
12214;SDS011;6170;42.206;24.142;2023-04-21T02:55:57;19.75;;;12.18;;
12214;SDS011;6170;42.206;24.142;2023-04-21T02:58:26;23.08;;;12.48;;
12214;SDS011;6170;42.206;24.142;2023-04-21T03:00:53;15.18;;;12.27;;
12214;SDS011;6170;42.206;24.142;2023-04-21T03:03:21;17.80;;;12.85;;
12214;SDS011;6170;42.206;24.142;2023-04-21T03:05:53;23.75;;;14.05;;
12214;SDS011;6170;42.206;24.142;2023-04-21T03:08:22;22.75;;;13.40;;
12214;SDS011;6170;42.206;24.142;2023-04-21T03:10:49;17.85;;;13.48;;
12214;SDS011;6170;42.206;24.142;2023-04-21T03:13:16;19.13;;;13.88;;
12214;SDS011;6170;42.206;24.142;2023-04-21T03:15:43;21.15;;;13.45;;
12214;SDS011;6170;42.206;24.142;2023-04-21T03:18:10;18.48;;;13.13;;
12214;SDS011;6170;42.206;24.142;2023-04-21T03:20:37;17.88;;;12.73;;
12214;SDS011;6170;42.206;24.142;2023-04-21T03:23:06;18.67;;;12.77;;
12214;SDS011;6170;42.206;24.142;2023-04-21T03:25:33;15.15;;;11.95;;
12214;SDS011;6170;42.206;24.142;2023-04-21T03:28:00;16.80;;;12.07;;
12214;SDS011;6170;42.206;24.142;2023-04-21T03:30:27;17.15;;;12.48;;
12214;SDS011;6170;42.206;24.142;2023-04-21T03:32:54;14.82;;;11.50;;
12214;SDS011;6170;42.206;24.142;2023-04-21T03:35:22;15.38;;;10.70;;
12214;SDS011;6170;42.206;24.142;2023-04-21T03:37:50;17.38;;;10.45;;
12214;SDS011;6170;42.206;24.142;2023-04-21T03:40:18;15.20;;;10.57;;
12214;SDS011;6170;42.206;24.142;2023-04-21T03:42:45;15.18;;;11.70;;
12214;SDS011;6170;42.206;24.142;2023-04-21T03:45:12;15.05;;;11.07;;
12214;SDS011;6170;42.206;24.142;2023-04-21T03:47:39;17.83;;;11.70;;
12214;SDS011;6170;42.206;24.142;2023-04-21T03:50:06;14.68;;;11.65;;
12214;SDS011;6170;42.206;24.142;2023-04-21T03:52:33;14.18;;;11.55;;
12214;SDS011;6170;42.206;24.142;2023-04-21T03:55:01;15.63;;;12.85;;
12214;SDS011;6170;42.206;24.142;2023-04-21T03:57:30;15.57;;;11.77;;
12214;SDS011;6170;42.206;24.142;2023-04-21T03:59:57;24.17;;;12.98;;
12214;SDS011;6170;42.206;24.142;2023-04-21T04:02:24;18.92;;;11.98;;
12214;SDS011;6170;42.206;24.142;2023-04-21T04:04:51;16.33;;;12.07;;
12214;SDS011;6170;42.206;24.142;2023-04-21T04:07:18;20.02;;;13.05;;
12214;SDS011;6170;42.206;24.142;2023-04-21T04:09:45;21.40;;;12.60;;
12214;SDS011;6170;42.206;24.142;2023-04-21T04:12:12;28.65;;;13.18;;
12214;SDS011;6170;42.206;24.142;2023-04-21T04:14:40;22.42;;;13.88;;
12214;SDS011;6170;42.206;24.142;2023-04-21T04:17:07;24.55;;;14.15;;
12214;SDS011;6170;42.206;24.142;2023-04-21T04:19:34;15.98;;;11.73;;
12214;SDS011;6170;42.206;24.142;2023-04-21T04:22:01;16.20;;;10.73;;
12214;SDS011;6170;42.206;24.142;2023-04-21T04:24:31;16.23;;;10.52;;
12214;SDS011;6170;42.206;24.142;2023-04-21T04:26:59;12.60;;;9.57;;
12214;SDS011;6170;42.206;24.142;2023-04-21T04:29:27;14.25;;;9.18;;
12214;SDS011;6170;42.206;24.142;2023-04-21T04:31:55;17.25;;;8.70;;
12214;SDS011;6170;42.206;24.142;2023-04-21T04:34:25;14.77;;;8.43;;
12214;SDS011;6170;42.206;24.142;2023-04-21T04:36:52;17.15;;;8.35;;
12214;SDS011;6170;42.206;24.142;2023-04-21T04:39:21;9.63;;;6.88;;
12214;SDS011;6170;42.206;24.142;2023-04-21T04:41:48;8.88;;;7.32;;
12214;SDS011;6170;42.206;24.142;2023-04-21T04:44:16;13.20;;;7.57;;
12214;SDS011;6170;42.206;24.142;2023-04-21T04:46:43;9.82;;;7.20;;
12214;SDS011;6170;42.206;24.142;2023-04-21T04:49:12;10.07;;;7.18;;
12214;SDS011;6170;42.206;24.142;2023-04-21T04:51:39;9.45;;;7.50;;
12214;SDS011;6170;42.206;24.142;2023-04-21T04:54:06;10.65;;;6.90;;
12214;SDS011;6170;42.206;24.142;2023-04-21T04:56:33;8.88;;;6.70;;
12214;SDS011;6170;42.206;24.142;2023-04-21T04:59:00;8.48;;;6.97;;
12214;SDS011;6170;42.206;24.142;2023-04-21T05:01:27;7.88;;;6.07;;
12214;SDS011;6170;42.206;24.142;2023-04-21T05:03:55;9.48;;;6.40;;
12214;SDS011;6170;42.206;24.142;2023-04-21T05:06:24;12.15;;;6.03;;
12214;SDS011;6170;42.206;24.142;2023-04-21T05:08:52;11.20;;;6.15;;
12214;SDS011;6170;42.206;24.142;2023-04-21T05:11:20;8.10;;;6.50;;
12214;SDS011;6170;42.206;24.142;2023-04-21T05:13:47;8.25;;;5.78;;
12214;SDS011;6170;42.206;24.142;2023-04-21T05:16:14;8.27;;;6.30;;
12214;SDS011;6170;42.206;24.142;2023-04-21T05:18:41;10.23;;;5.78;;
12214;SDS011;6170;42.206;24.142;2023-04-21T05:21:08;8.20;;;5.75;;
12214;SDS011;6170;42.206;24.142;2023-04-21T05:23:37;10.93;;;5.85;;
12214;SDS011;6170;42.206;24.142;2023-04-21T05:26:04;9.70;;;6.43;;
12214;SDS011;6170;42.206;24.142;2023-04-21T05:28:31;7.40;;;5.85;;
12214;SDS011;6170;42.206;24.142;2023-04-21T05:30:59;6.95;;;5.57;;
12214;SDS011;6170;42.206;24.142;2023-04-21T05:33:26;7.30;;;5.57;;
12214;SDS011;6170;42.206;24.142;2023-04-21T05:35:55;8.35;;;5.80;;
12214;SDS011;6170;42.206;24.142;2023-04-21T05:38:22;8.45;;;5.40;;
12214;SDS011;6170;42.206;24.142;2023-04-21T05:40:53;9.48;;;5.75;;
12214;SDS011;6170;42.206;24.142;2023-04-21T05:43:20;8.18;;;5.80;;
12214;SDS011;6170;42.206;24.142;2023-04-21T05:45:47;6.22;;;5.63;;
12214;SDS011;6170;42.206;24.142;2023-04-21T05:48:14;7.90;;;5.22;;
12214;SDS011;6170;42.206;24.142;2023-04-21T05:50:42;8.93;;;5.80;;
12214;SDS011;6170;42.206;24.142;2023-04-21T05:53:09;6.68;;;5.90;;
12214;SDS011;6170;42.206;24.142;2023-04-21T05:55:36;7.25;;;5.60;;
12214;SDS011;6170;42.206;24.142;2023-04-21T05:58:04;8.55;;;6.38;;
12214;SDS011;6170;42.206;24.142;2023-04-21T06:00:31;10.02;;;6.57;;
12214;SDS011;6170;42.206;24.142;2023-04-21T06:02:58;7.15;;;6.38;;
12214;SDS011;6170;42.206;24.142;2023-04-21T06:05:25;8.75;;;6.28;;
12214;SDS011;6170;42.206;24.142;2023-04-21T06:07:53;12.98;;;6.18;;
12214;SDS011;6170;42.206;24.142;2023-04-21T06:10:20;12.38;;;6.10;;
12214;SDS011;6170;42.206;24.142;2023-04-21T06:12:47;5.60;;;5.03;;
12214;SDS011;6170;42.206;24.142;2023-04-21T06:15:15;7.75;;;5.60;;
12214;SDS011;6170;42.206;24.142;2023-04-21T06:17:42;6.43;;;5.43;;
12214;SDS011;6170;42.206;24.142;2023-04-21T06:20:09;6.65;;;5.75;;
12214;SDS011;6170;42.206;24.142;2023-04-21T06:22:36;5.90;;;5.30;;
12214;SDS011;6170;42.206;24.142;2023-04-21T06:25:04;8.35;;;5.47;;
12214;SDS011;6170;42.206;24.142;2023-04-21T06:27:31;10.77;;;5.30;;
12214;SDS011;6170;42.206;24.142;2023-04-21T06:29:58;6.03;;;5.43;;
12214;SDS011;6170;42.206;24.142;2023-04-21T06:32:26;8.73;;;5.18;;
12214;SDS011;6170;42.206;24.142;2023-04-21T06:34:53;8.90;;;5.32;;
12214;SDS011;6170;42.206;24.142;2023-04-21T06:37:20;10.65;;;5.60;;
12214;SDS011;6170;42.206;24.142;2023-04-21T06:39:47;6.00;;;5.25;;
12214;SDS011;6170;42.206;24.142;2023-04-21T06:42:14;10.05;;;5.75;;
12214;SDS011;6170;42.206;24.142;2023-04-21T06:44:41;8.90;;;6.20;;
12214;SDS011;6170;42.206;24.142;2023-04-21T06:47:07;11.77;;;6.13;;
12214;SDS011;6170;42.206;24.142;2023-04-21T06:49:36;10.55;;;5.82;;
12214;SDS011;6170;42.206;24.142;2023-04-21T06:52:03;7.30;;;6.05;;
12214;SDS011;6170;42.206;24.142;2023-04-21T06:54:30;8.95;;;5.85;;
12214;SDS011;6170;42.206;24.142;2023-04-21T06:56:56;7.65;;;5.18;;
12214;SDS011;6170;42.206;24.142;2023-04-21T06:59:23;9.68;;;5.93;;
12214;SDS011;6170;42.206;24.142;2023-04-21T07:01:50;8.27;;;5.78;;
12214;SDS011;6170;42.206;24.142;2023-04-21T07:04:17;8.68;;;5.78;;
12214;SDS011;6170;42.206;24.142;2023-04-21T07:06:46;8.70;;;5.50;;
12214;SDS011;6170;42.206;24.142;2023-04-21T07:09:13;6.03;;;5.30;;
12214;SDS011;6170;42.206;24.142;2023-04-21T07:11:40;6.97;;;5.25;;
12214;SDS011;6170;42.206;24.142;2023-04-21T07:14:07;8.38;;;6.00;;
12214;SDS011;6170;42.206;24.142;2023-04-21T07:16:35;7.45;;;5.15;;
12214;SDS011;6170;42.206;24.142;2023-04-21T07:19:01;8.63;;;5.68;;
12214;SDS011;6170;42.206;24.142;2023-04-21T07:21:28;8.05;;;5.43;;
12214;SDS011;6170;42.206;24.142;2023-04-21T07:23:57;8.60;;;5.70;;
12214;SDS011;6170;42.206;24.142;2023-04-21T07:26:24;9.35;;;6.10;;
12214;SDS011;6170;42.206;24.142;2023-04-21T07:28:51;8.50;;;6.03;;
12214;SDS011;6170;42.206;24.142;2023-04-21T07:31:19;7.18;;;5.80;;
12214;SDS011;6170;42.206;24.142;2023-04-21T07:33:46;7.07;;;6.05;;
12214;SDS011;6170;42.206;24.142;2023-04-21T07:36:13;7.78;;;5.70;;
12214;SDS011;6170;42.206;24.142;2023-04-21T07:38:40;10.35;;;6.03;;
12214;SDS011;6170;42.206;24.142;2023-04-21T07:41:09;6.40;;;5.78;;
12214;SDS011;6170;42.206;24.142;2023-04-21T07:43:36;9.38;;;5.53;;
12214;SDS011;6170;42.206;24.142;2023-04-21T07:46:03;8.77;;;5.93;;
12214;SDS011;6170;42.206;24.142;2023-04-21T07:48:30;7.25;;;5.40;;
12214;SDS011;6170;42.206;24.142;2023-04-21T07:50:57;7.13;;;5.13;;
12214;SDS011;6170;42.206;24.142;2023-04-21T07:53:24;7.47;;;5.53;;
12214;SDS011;6170;42.206;24.142;2023-04-21T07:55:52;8.63;;;5.70;;
12214;SDS011;6170;42.206;24.142;2023-04-21T07:58:20;7.25;;;5.22;;
12214;SDS011;6170;42.206;24.142;2023-04-21T08:00:47;5.97;;;5.10;;
12214;SDS011;6170;42.206;24.142;2023-04-21T08:03:14;6.70;;;4.80;;
12214;SDS011;6170;42.206;24.142;2023-04-21T08:05:41;6.57;;;4.60;;
12214;SDS011;6170;42.206;24.142;2023-04-21T08:08:08;6.88;;;5.13;;
12214;SDS011;6170;42.206;24.142;2023-04-21T08:10:35;8.02;;;4.93;;
12214;SDS011;6170;42.206;24.142;2023-04-21T08:13:02;8.38;;;4.00;;
12214;SDS011;6170;42.206;24.142;2023-04-21T08:15:31;5.53;;;4.60;;
12214;SDS011;6170;42.206;24.142;2023-04-21T08:17:59;6.40;;;4.93;;
12214;SDS011;6170;42.206;24.142;2023-04-21T08:20:26;9.32;;;4.30;;
12214;SDS011;6170;42.206;24.142;2023-04-21T08:22:53;5.10;;;4.32;;
12214;SDS011;6170;42.206;24.142;2023-04-21T08:25:20;7.70;;;5.07;;
12214;SDS011;6170;42.206;24.142;2023-04-21T08:27:47;5.20;;;4.68;;
12214;SDS011;6170;42.206;24.142;2023-04-21T08:30:14;5.30;;;4.80;;
12214;SDS011;6170;42.206;24.142;2023-04-21T08:32:42;6.32;;;4.60;;
12214;SDS011;6170;42.206;24.142;2023-04-21T08:35:09;9.63;;;5.00;;
12214;SDS011;6170;42.206;24.142;2023-04-21T08:37:36;6.70;;;5.10;;
12214;SDS011;6170;42.206;24.142;2023-04-21T08:40:04;6.80;;;4.50;;
12214;SDS011;6170;42.206;24.142;2023-04-21T08:42:32;8.70;;;4.68;;
12214;SDS011;6170;42.206;24.142;2023-04-21T08:45:01;5.72;;;4.70;;
12214;SDS011;6170;42.206;24.142;2023-04-21T08:47:28;5.97;;;4.63;;
12214;SDS011;6170;42.206;24.142;2023-04-21T08:49:57;5.78;;;4.85;;
12214;SDS011;6170;42.206;24.142;2023-04-21T08:52:24;5.68;;;4.85;;
12214;SDS011;6170;42.206;24.142;2023-04-21T08:54:51;7.68;;;5.35;;
12214;SDS011;6170;42.206;24.142;2023-04-21T08:57:19;7.95;;;5.07;;
12214;SDS011;6170;42.206;24.142;2023-04-21T08:59:46;9.15;;;5.05;;
12214;SDS011;6170;42.206;24.142;2023-04-21T09:02:14;8.48;;;5.03;;
12214;SDS011;6170;42.206;24.142;2023-04-21T09:04:42;6.63;;;5.20;;
12214;SDS011;6170;42.206;24.142;2023-04-21T09:07:12;5.82;;;5.20;;
12214;SDS011;6170;42.206;24.142;2023-04-21T09:09:56;6.47;;;4.95;;
12214;SDS011;6170;42.206;24.142;2023-04-21T09:12:24;6.38;;;5.00;;
12214;SDS011;6170;42.206;24.142;2023-04-21T09:14:51;6.45;;;5.13;;
12214;SDS011;6170;42.206;24.142;2023-04-21T09:17:20;9.23;;;4.70;;
12214;SDS011;6170;42.206;24.142;2023-04-21T09:19:52;6.07;;;4.68;;
12214;SDS011;6170;42.206;24.142;2023-04-21T09:22:25;5.75;;;4.55;;
12214;SDS011;6170;42.206;24.142;2023-04-21T09:24:56;5.80;;;4.32;;
12214;SDS011;6170;42.206;24.142;2023-04-21T09:27:24;5.25;;;4.72;;
12214;SDS011;6170;42.206;24.142;2023-04-21T09:29:51;7.00;;;4.55;;
12214;SDS011;6170;42.206;24.142;2023-04-21T09:32:18;9.10;;;5.35;;
12214;SDS011;6170;42.206;24.142;2023-04-21T09:34:45;6.22;;;4.40;;
12214;SDS011;6170;42.206;24.142;2023-04-21T09:37:12;6.28;;;4.55;;
12214;SDS011;6170;42.206;24.142;2023-04-21T09:39:43;5.50;;;4.78;;
12214;SDS011;6170;42.206;24.142;2023-04-21T09:42:11;5.32;;;4.72;;
12214;SDS011;6170;42.206;24.142;2023-04-21T09:44:38;6.00;;;4.95;;
12214;SDS011;6170;42.206;24.142;2023-04-21T09:47:05;9.30;;;4.63;;
12214;SDS011;6170;42.206;24.142;2023-04-21T09:49:37;10.25;;;5.65;;
12214;SDS011;6170;42.206;24.142;2023-04-21T09:52:09;8.88;;;5.30;;
12214;SDS011;6170;42.206;24.142;2023-04-21T09:54:38;9.18;;;5.40;;
12214;SDS011;6170;42.206;24.142;2023-04-21T09:57:13;7.25;;;5.50;;
12214;SDS011;6170;42.206;24.142;2023-04-21T10:02:12;6.57;;;4.70;;
12214;SDS011;6170;42.206;24.142;2023-04-21T10:04:42;5.50;;;4.90;;
12214;SDS011;6170;42.206;24.142;2023-04-21T10:07:09;6.75;;;4.90;;
12214;SDS011;6170;42.206;24.142;2023-04-21T10:09:39;9.43;;;4.22;;
12214;SDS011;6170;42.206;24.142;2023-04-21T10:12:12;5.88;;;3.90;;
12214;SDS011;6170;42.206;24.142;2023-04-21T10:14:40;4.97;;;4.47;;
12214;SDS011;6170;42.206;24.142;2023-04-21T10:17:08;5.70;;;3.97;;
12214;SDS011;6170;42.206;24.142;2023-04-21T10:19:36;6.95;;;3.95;;
12214;SDS011;6170;42.206;24.142;2023-04-21T10:22:12;7.10;;;4.18;;
12214;SDS011;6170;42.206;24.142;2023-04-21T10:24:40;9.07;;;4.10;;
12214;SDS011;6170;42.206;24.142;2023-04-21T10:27:08;6.00;;;4.07;;
12214;SDS011;6170;42.206;24.142;2023-04-21T10:29:37;4.07;;;3.70;;
12214;SDS011;6170;42.206;24.142;2023-04-21T10:32:05;4.20;;;3.75;;
12214;SDS011;6170;42.206;24.142;2023-04-21T10:34:35;4.95;;;4.20;;
12214;SDS011;6170;42.206;24.142;2023-04-21T10:37:08;5.83;;;4.17;;
12214;SDS011;6170;42.206;24.142;2023-04-21T10:39:54;4.75;;;3.95;;
12214;SDS011;6170;42.206;24.142;2023-04-21T10:42:28;5.15;;;4.47;;
12214;SDS011;6170;42.206;24.142;2023-04-21T10:45:03;7.50;;;4.13;;
12214;SDS011;6170;42.206;24.142;2023-04-21T10:47:36;5.35;;;4.05;;
12214;SDS011;6170;42.206;24.142;2023-04-21T10:50:14;9.60;;;5.70;;
12214;SDS011;6170;42.206;24.142;2023-04-21T10:52:43;8.32;;;7.45;;
12214;SDS011;6170;42.206;24.142;2023-04-21T10:55:11;5.93;;;5.32;;
12214;SDS011;6170;42.206;24.142;2023-04-21T10:57:41;4.65;;;4.13;;
12214;SDS011;6170;42.206;24.142;2023-04-21T11:00:13;7.72;;;3.95;;
12214;SDS011;6170;42.206;24.142;2023-04-21T11:02:41;10.20;;;3.67;;
12214;SDS011;6170;42.206;24.142;2023-04-21T11:05:09;4.78;;;3.88;;
12214;SDS011;6170;42.206;24.142;2023-04-21T11:07:37;6.07;;;3.47;;
12214;SDS011;6170;42.206;24.142;2023-04-21T11:10:05;4.30;;;3.15;;
12214;SDS011;6170;42.206;24.142;2023-04-21T11:12:36;9.27;;;4.10;;
12214;SDS011;6170;42.206;24.142;2023-04-21T11:15:06;6.75;;;4.10;;
12214;SDS011;6170;42.206;24.142;2023-04-21T11:17:35;7.15;;;4.30;;
12214;SDS011;6170;42.206;24.142;2023-04-21T11:20:04;5.63;;;4.05;;
12214;SDS011;6170;42.206;24.142;2023-04-21T11:22:31;5.47;;;4.20;;
12214;SDS011;6170;42.206;24.142;2023-04-21T11:24:59;5.93;;;4.50;;
12214;SDS011;6170;42.206;24.142;2023-04-21T11:27:27;10.82;;;4.50;;
12214;SDS011;6170;42.206;24.142;2023-04-21T11:29:54;7.43;;;4.10;;
12214;SDS011;6170;42.206;24.142;2023-04-21T11:32:22;6.55;;;3.97;;
12214;SDS011;6170;42.206;24.142;2023-04-21T11:34:50;7.18;;;4.40;;
12214;SDS011;6170;42.206;24.142;2023-04-21T11:37:21;7.43;;;4.57;;
12214;SDS011;6170;42.206;24.142;2023-04-21T11:39:55;6.22;;;4.35;;
12214;SDS011;6170;42.206;24.142;2023-04-21T11:42:22;6.70;;;4.45;;
12214;SDS011;6170;42.206;24.142;2023-04-21T11:44:49;8.65;;;4.38;;
12214;SDS011;6170;42.206;24.142;2023-04-21T11:47:16;6.00;;;3.83;;
12214;SDS011;6170;42.206;24.142;2023-04-21T11:49:44;4.63;;;3.88;;
12214;SDS011;6170;42.206;24.142;2023-04-21T11:52:20;4.78;;;3.78;;
12214;SDS011;6170;42.206;24.142;2023-04-21T11:54:52;5.72;;;3.63;;
12214;SDS011;6170;42.206;24.142;2023-04-21T11:59:48;5.70;;;4.13;;
12214;SDS011;6170;42.206;24.142;2023-04-21T12:02:20;7.57;;;4.55;;
12214;SDS011;6170;42.206;24.142;2023-04-21T12:04:58;4.90;;;4.00;;
12214;SDS011;6170;42.206;24.142;2023-04-21T12:07:27;4.55;;;3.83;;
12214;SDS011;6170;42.206;24.142;2023-04-21T12:09:55;6.72;;;4.53;;
12214;SDS011;6170;42.206;24.142;2023-04-21T12:12:22;7.50;;;4.03;;
12214;SDS011;6170;42.206;24.142;2023-04-21T12:14:50;5.68;;;4.00;;
12214;SDS011;6170;42.206;24.142;2023-04-21T12:17:17;6.25;;;4.20;;
12214;SDS011;6170;42.206;24.142;2023-04-21T12:19:44;6.18;;;3.58;;
12214;SDS011;6170;42.206;24.142;2023-04-21T12:22:12;7.55;;;4.10;;
12214;SDS011;6170;42.206;24.142;2023-04-21T12:24:42;6.40;;;4.25;;
12214;SDS011;6170;42.206;24.142;2023-04-21T12:27:10;10.75;;;4.22;;
12214;SDS011;6170;42.206;24.142;2023-04-21T12:29:38;7.90;;;4.78;;
12214;SDS011;6170;42.206;24.142;2023-04-21T12:32:05;7.18;;;4.50;;
12214;SDS011;6170;42.206;24.142;2023-04-21T12:34:33;5.85;;;4.13;;
12214;SDS011;6170;42.206;24.142;2023-04-21T12:37:00;5.50;;;4.43;;
12214;SDS011;6170;42.206;24.142;2023-04-21T12:39:28;5.80;;;4.10;;
12214;SDS011;6170;42.206;24.142;2023-04-21T12:41:56;4.85;;;3.78;;
12214;SDS011;6170;42.206;24.142;2023-04-21T12:44:23;7.20;;;3.80;;
12214;SDS011;6170;42.206;24.142;2023-04-21T12:46:51;4.80;;;3.65;;
12214;SDS011;6170;42.206;24.142;2023-04-21T12:49:18;8.13;;;3.80;;
12214;SDS011;6170;42.206;24.142;2023-04-21T12:51:45;5.93;;;3.67;;
12214;SDS011;6170;42.206;24.142;2023-04-21T12:54:12;4.03;;;3.60;;
12214;SDS011;6170;42.206;24.142;2023-04-21T12:56:40;8.57;;;3.97;;
12214;SDS011;6170;42.206;24.142;2023-04-21T12:59:09;7.10;;;3.38;;
12214;SDS011;6170;42.206;24.142;2023-04-21T13:01:37;7.25;;;3.72;;
12214;SDS011;6170;42.206;24.142;2023-04-21T13:04:04;5.40;;;4.05;;
12214;SDS011;6170;42.206;24.142;2023-04-21T13:06:31;4.28;;;3.58;;
12214;SDS011;6170;42.206;24.142;2023-04-21T13:08:58;5.32;;;3.75;;
12214;SDS011;6170;42.206;24.142;2023-04-21T13:11:26;9.85;;;3.92;;
12214;SDS011;6170;42.206;24.142;2023-04-21T13:13:53;5.05;;;3.90;;
12214;SDS011;6170;42.206;24.142;2023-04-21T13:16:21;6.95;;;3.42;;
12214;SDS011;6170;42.206;24.142;2023-04-21T13:18:48;4.90;;;3.80;;
12214;SDS011;6170;42.206;24.142;2023-04-21T13:21:15;5.82;;;3.90;;
12214;SDS011;6170;42.206;24.142;2023-04-21T13:23:42;5.43;;;3.85;;
12214;SDS011;6170;42.206;24.142;2023-04-21T13:26:09;5.30;;;3.90;;
12214;SDS011;6170;42.206;24.142;2023-04-21T13:28:36;4.55;;;3.80;;
12214;SDS011;6170;42.206;24.142;2023-04-21T13:31:03;6.65;;;3.67;;
12214;SDS011;6170;42.206;24.142;2023-04-21T13:33:32;5.28;;;4.30;;
12214;SDS011;6170;42.206;24.142;2023-04-21T13:35:59;7.38;;;4.68;;
12214;SDS011;6170;42.206;24.142;2023-04-21T13:38:27;11.40;;;4.57;;
12214;SDS011;6170;42.206;24.142;2023-04-21T13:40:54;8.23;;;5.53;;
12214;SDS011;6170;42.206;24.142;2023-04-21T13:43:22;9.48;;;5.28;;
12214;SDS011;6170;42.206;24.142;2023-04-21T13:45:49;6.25;;;5.50;;
12214;SDS011;6170;42.206;24.142;2023-04-21T13:48:16;6.28;;;5.35;;
12214;SDS011;6170;42.206;24.142;2023-04-21T13:50:45;8.80;;;5.32;;
12214;SDS011;6170;42.206;24.142;2023-04-21T13:53:13;9.98;;;5.18;;
12214;SDS011;6170;42.206;24.142;2023-04-21T13:55:40;6.30;;;4.80;;
12214;SDS011;6170;42.206;24.142;2023-04-21T13:58:08;5.10;;;4.60;;
12214;SDS011;6170;42.206;24.142;2023-04-21T14:00:35;7.05;;;5.55;;
12214;SDS011;6170;42.206;24.142;2023-04-21T14:03:02;8.25;;;5.45;;
12214;SDS011;6170;42.206;24.142;2023-04-21T14:05:29;5.18;;;4.63;;
12214;SDS011;6170;42.206;24.142;2023-04-21T14:07:58;6.68;;;4.20;;
12214;SDS011;6170;42.206;24.142;2023-04-21T14:10:25;8.85;;;5.13;;
12214;SDS011;6170;42.206;24.142;2023-04-21T14:12:52;6.63;;;4.00;;
12214;SDS011;6170;42.206;24.142;2023-04-21T14:15:19;6.85;;;4.35;;
12214;SDS011;6170;42.206;24.142;2023-04-21T14:17:46;7.32;;;4.75;;
12214;SDS011;6170;42.206;24.142;2023-04-21T14:20:13;7.38;;;5.07;;
12214;SDS011;6170;42.206;24.142;2023-04-21T14:22:40;6.28;;;4.63;;
12214;SDS011;6170;42.206;24.142;2023-04-21T14:25:08;5.75;;;4.25;;
12214;SDS011;6170;42.206;24.142;2023-04-21T14:27:35;5.90;;;3.88;;
12214;SDS011;6170;42.206;24.142;2023-04-21T14:30:02;4.93;;;3.70;;
12214;SDS011;6170;42.206;24.142;2023-04-21T14:32:30;4.82;;;3.70;;
12214;SDS011;6170;42.206;24.142;2023-04-21T14:34:57;6.95;;;4.25;;
12214;SDS011;6170;42.206;24.142;2023-04-21T14:37:27;6.43;;;5.05;;
12214;SDS011;6170;42.206;24.142;2023-04-21T14:39:54;8.65;;;5.00;;
12214;SDS011;6170;42.206;24.142;2023-04-21T14:42:22;9.88;;;4.70;;
12214;SDS011;6170;42.206;24.142;2023-04-21T14:44:49;7.20;;;5.07;;
12214;SDS011;6170;42.206;24.142;2023-04-21T14:47:16;8.48;;;5.20;;
12214;SDS011;6170;42.206;24.142;2023-04-21T14:49:43;7.70;;;5.78;;